createdAt,value
2018-10-21T00:00:10.333Z,26.50
2018-10-21T00:02:38.994Z,29.07
2018-10-21T00:05:08.938Z,21.57
2018-10-21T00:07:37.562Z,21.73
2018-10-21T00:10:07.630Z,23.77
2018-10-21T00:12:36.868Z,25.03
2018-10-21T00:15:06.068Z,27.37
2018-10-21T00:17:35.147Z,26.07
2018-10-21T00:20:05.353Z,24.17
2018-10-21T00:22:34.343Z,25.77
2018-10-21T00:25:03.884Z,21.53
2018-10-21T00:30:01.431Z,26.10
2018-10-21T00:32:35.614Z,29.33
2018-10-21T00:35:04.403Z,22.20
2018-10-21T00:37:32.946Z,25.47
2018-10-21T00:40:01.936Z,30.93
2018-10-21T00:42:30.400Z,22.93
2018-10-21T00:44:59.017Z,27.37
2018-10-21T00:47:28.342Z,25.70
2018-10-21T00:49:56.845Z,27.47
2018-10-21T00:52:25.570Z,29.37
2018-10-21T00:54:54.278Z,29.10
2018-10-21T00:57:22.796Z,26.07
2018-10-21T00:59:51.352Z,25.80
2018-10-21T01:02:20.100Z,25.60
2018-10-21T01:04:48.726Z,27.83
2018-10-21T01:07:17.642Z,22.27
2018-10-21T01:09:46.255Z,27.23
2018-10-21T01:12:15.001Z,26.63
2018-10-21T01:14:43.906Z,26.47
2018-10-21T01:17:12.729Z,25.50
2018-10-21T01:19:41.363Z,28.37
2018-10-21T01:22:09.983Z,30.57
2018-10-21T01:24:38.462Z,23.17
2018-10-21T01:27:07.247Z,29.00
2018-10-21T01:29:35.772Z,25.80
2018-10-21T01:32:04.664Z,29.03
2018-10-21T01:34:34.103Z,25.57
2018-10-21T01:37:03.007Z,29.43
2018-10-21T01:39:42.212Z,24.27
2018-10-21T01:42:10.947Z,25.63
2018-10-21T01:44:39.725Z,24.30
2018-10-21T01:47:08.289Z,24.37
2018-10-21T01:49:37.408Z,26.30
2018-10-21T01:52:06.018Z,26.30
2018-10-21T01:54:34.881Z,23.63
2018-10-21T01:57:03.465Z,19.60
2018-10-21T01:59:31.946Z,21.10
2018-10-21T02:02:00.900Z,21.43
2018-10-21T02:04:29.426Z,19.33
2018-10-21T02:06:57.885Z,21.63
2018-10-21T02:09:26.656Z,20.93
2018-10-21T02:11:55.316Z,22.53
2018-10-21T02:14:24.150Z,21.87
2018-10-21T02:16:52.846Z,20.10
2018-10-21T02:19:21.507Z,23.17
2018-10-21T02:21:49.990Z,19.17
2018-10-21T02:24:19.013Z,19.23
2018-10-21T02:26:47.628Z,22.80
2018-10-21T02:29:16.190Z,20.70
2018-10-21T02:31:44.930Z,22.63
2018-10-21T02:34:13.807Z,21.10
2018-10-21T02:36:42.720Z,21.07
2018-10-21T02:39:11.334Z,23.03
2018-10-21T02:41:51.225Z,23.63
2018-10-21T02:44:21.036Z,20.57
2018-10-21T02:46:50.843Z,18.80
2018-10-21T02:49:20.462Z,22.10
2018-10-21T02:51:54.407Z,23.87
2018-10-21T02:54:24.749Z,25.27
2018-10-21T02:56:53.728Z,25.13
2018-10-21T02:59:22.726Z,27.60
2018-10-21T03:01:51.366Z,26.27
2018-10-21T03:04:20.178Z,25.47
2018-10-21T03:06:49.149Z,26.30
2018-10-21T03:09:18.366Z,28.27
2018-10-21T03:11:47.003Z,28.50
2018-10-21T03:14:15.679Z,27.47
2018-10-21T03:16:44.413Z,23.90
2018-10-21T03:19:13.102Z,33.67
2018-10-21T03:21:41.629Z,29.93
2018-10-21T03:24:10.086Z,29.17
2018-10-21T03:26:38.519Z,31.30
2018-10-21T03:29:07.059Z,33.60
2018-10-21T03:31:36.199Z,28.57
2018-10-21T03:34:05.076Z,34.67
2018-10-21T03:36:33.564Z,30.03
2018-10-21T03:39:02.134Z,28.80
2018-10-21T03:41:30.858Z,29.10
2018-10-21T03:43:59.320Z,31.87
2018-10-21T03:46:27.789Z,35.80
2018-10-21T03:48:56.231Z,35.77
2018-10-21T03:51:24.799Z,28.60
2018-10-21T03:53:53.254Z,34.30
2018-10-21T03:56:21.770Z,33.77
2018-10-21T03:58:50.306Z,33.43
2018-10-21T04:01:18.954Z,35.23
2018-10-21T04:03:47.525Z,37.33
2018-10-21T04:06:16.000Z,35.87
2018-10-21T04:08:44.546Z,31.90
2018-10-21T04:11:13.143Z,35.93
2018-10-21T04:13:41.717Z,35.87
2018-10-21T04:16:10.347Z,39.93
2018-10-21T04:18:38.877Z,33.70
2018-10-21T04:21:07.378Z,32.10
2018-10-21T04:23:36.162Z,32.10
2018-10-21T04:26:04.727Z,33.57
2018-10-21T04:28:33.263Z,40.27
2018-10-21T04:31:01.856Z,28.70
2018-10-21T04:33:45.665Z,34.20
2018-10-21T04:36:17.164Z,34.17
2018-10-21T04:40:00.631Z,33.47
2018-10-21T04:42:29.216Z,31.60
2018-10-21T04:44:58.130Z,32.67
2018-10-21T04:47:26.837Z,35.03
2018-10-21T04:49:55.398Z,35.40
2018-10-21T04:52:24.153Z,36.77
2018-10-21T04:54:52.676Z,32.17
2018-10-21T04:57:21.189Z,36.47
2018-10-21T04:59:49.841Z,30.13
2018-10-21T05:02:18.341Z,32.03
2018-10-21T05:04:46.865Z,31.10
2018-10-21T05:07:15.428Z,33.80
2018-10-21T05:09:43.963Z,34.97
2018-10-21T05:12:12.822Z,35.40
2018-10-21T05:14:41.585Z,33.07
2018-10-21T05:17:10.210Z,29.27
2018-10-21T05:19:38.864Z,32.37
2018-10-21T05:22:07.772Z,29.17
2018-10-21T05:24:36.588Z,31.40
2018-10-21T05:27:06.364Z,31.47
2018-10-21T05:29:34.906Z,34.73
2018-10-21T05:32:03.629Z,39.20
2018-10-21T05:34:32.162Z,30.47
2018-10-21T05:37:00.629Z,33.83
2018-10-21T05:39:29.232Z,33.63
2018-10-21T05:41:57.827Z,38.13
2018-10-21T05:44:26.366Z,32.83
2018-10-21T05:46:54.853Z,32.47
2018-10-21T05:49:23.407Z,27.03
2018-10-21T05:51:52.290Z,30.30
2018-10-21T05:54:21.181Z,32.83
2018-10-21T05:56:50.992Z,30.10
2018-10-21T05:59:19.604Z,27.70
2018-10-21T06:01:49.180Z,31.67
2018-10-21T06:04:18.495Z,36.63
2018-10-21T06:06:47.106Z,33.97
2018-10-21T06:09:15.820Z,28.50
2018-10-21T06:11:44.360Z,28.97
2018-10-21T06:14:13.172Z,34.17
2018-10-21T06:17:05.741Z,33.43
2018-10-21T06:19:39.778Z,26.40
2018-10-21T06:22:08.388Z,29.30
2018-10-21T06:24:37.091Z,28.70
2018-10-21T06:27:06.162Z,31.17
2018-10-21T06:29:35.223Z,28.90
2018-10-21T06:32:04.908Z,28.33
2018-10-21T06:34:34.699Z,25.27
2018-10-21T06:37:03.536Z,25.57
2018-10-21T06:39:32.692Z,25.77
2018-10-21T06:42:01.295Z,33.70
2018-10-21T06:44:30.688Z,30.53
2018-10-21T06:46:59.737Z,27.20
2018-10-21T06:49:28.686Z,27.53
2018-10-21T06:51:57.465Z,27.57
2018-10-21T06:54:26.252Z,28.47
2018-10-21T06:56:54.929Z,28.13
2018-10-21T06:59:23.867Z,27.00
2018-10-21T07:01:55.325Z,34.27
2018-10-21T07:04:24.569Z,35.77
2018-10-21T07:06:53.461Z,30.13
2018-10-21T07:09:22.141Z,29.83
2018-10-21T07:11:51.401Z,32.67
2018-10-21T07:14:24.673Z,25.67
2018-10-21T07:16:54.440Z,31.40
2018-10-21T07:19:23.422Z,27.47
2018-10-21T07:21:52.137Z,27.77
2018-10-21T07:24:20.935Z,26.47
2018-10-21T07:26:49.860Z,26.70
2018-10-21T07:29:18.637Z,27.57
2018-10-21T07:31:47.178Z,27.00
2018-10-21T07:34:16.058Z,25.13
2018-10-21T07:36:44.908Z,32.47
2018-10-21T07:39:13.920Z,28.43
2018-10-21T07:41:43.044Z,28.83
2018-10-21T07:44:11.519Z,31.03
2018-10-21T07:46:40.148Z,26.57
2018-10-21T07:49:08.777Z,24.70
2018-10-21T07:51:37.153Z,23.77
2018-10-21T07:54:06.254Z,26.10
2018-10-21T07:56:34.983Z,33.17
2018-10-21T07:59:03.802Z,30.60
2018-10-21T08:01:32.769Z,26.97
2018-10-21T08:04:02.152Z,28.50
2018-10-21T08:06:42.133Z,29.60
2018-10-21T08:09:11.812Z,27.63
2018-10-21T08:11:40.708Z,29.40
2018-10-21T08:14:12.071Z,25.93
2018-10-21T08:16:40.975Z,27.47
2018-10-21T08:19:10.981Z,27.67
2018-10-21T08:21:41.002Z,28.30
2018-10-21T08:24:09.529Z,26.67
2018-10-21T08:26:38.508Z,24.63
2018-10-21T08:29:07.284Z,23.13
2018-10-21T08:31:36.515Z,27.20
2018-10-21T08:34:05.610Z,23.27
2018-10-21T08:36:34.482Z,23.27
2018-10-21T08:39:17.650Z,29.97
2018-10-21T08:41:46.878Z,20.50
2018-10-21T08:44:15.852Z,23.00
2018-10-21T08:46:45.030Z,22.03
2018-10-21T08:49:15.178Z,21.57
2018-10-21T08:51:57.482Z,24.57
2018-10-21T08:54:26.842Z,24.23
2018-10-21T08:56:56.457Z,23.90
2018-10-21T08:59:25.406Z,20.70
2018-10-21T09:01:54.535Z,24.30
2018-10-21T09:04:23.367Z,26.77
2018-10-21T09:06:56.487Z,25.57
2018-10-21T09:09:25.140Z,28.23
2018-10-21T09:11:57.665Z,27.43
2018-10-21T09:14:28.974Z,28.40
2018-10-21T09:16:59.196Z,25.07
2018-10-21T09:19:28.158Z,24.23
2018-10-21T09:21:57.114Z,27.87
2018-10-21T09:24:26.195Z,31.37
2018-10-21T09:26:55.465Z,27.97
2018-10-21T09:29:24.144Z,25.43
2018-10-21T09:31:53.647Z,28.60
2018-10-21T09:34:22.316Z,32.73
2018-10-21T09:36:51.423Z,27.37
2018-10-21T09:39:20.517Z,31.50
2018-10-21T09:41:49.486Z,27.67
2018-10-21T09:44:19.218Z,28.63
2018-10-21T09:46:48.088Z,30.77
2018-10-21T09:49:16.822Z,31.40
2018-10-21T09:51:45.693Z,29.50
2018-10-21T09:54:14.712Z,33.00
2018-10-21T09:56:43.978Z,29.80
2018-10-21T09:59:13.013Z,33.03
2018-10-21T10:01:47.309Z,28.27
2018-10-21T10:04:16.003Z,30.57
2018-10-21T10:06:44.859Z,37.47
2018-10-21T10:09:14.461Z,30.77
2018-10-21T10:11:44.066Z,33.67
2018-10-21T10:14:12.832Z,30.27
2018-10-21T10:16:51.075Z,34.90
2018-10-21T10:19:20.248Z,31.37
2018-10-21T10:21:51.488Z,35.63
2018-10-21T10:24:20.856Z,30.57
2018-10-21T10:26:50.556Z,34.27
2018-10-21T10:29:19.787Z,35.63
2018-10-21T10:31:48.682Z,29.13
2018-10-21T10:34:17.383Z,33.93
2018-10-21T10:36:46.054Z,40.83
2018-10-21T10:39:15.748Z,31.00
2018-10-21T10:41:44.836Z,29.10
2018-10-21T10:44:13.983Z,32.97
2018-10-21T10:46:42.816Z,31.97
2018-10-21T10:49:11.879Z,30.10
2018-10-21T10:51:40.713Z,30.77
2018-10-21T10:54:09.553Z,34.63
2018-10-21T10:56:38.482Z,31.43
2018-10-21T10:59:07.432Z,29.97
2018-10-21T11:01:36.128Z,31.23
2018-10-21T11:04:05.116Z,27.77
2018-10-21T11:06:34.523Z,30.40
2018-10-21T11:09:04.058Z,29.60
2018-10-21T11:11:32.778Z,30.63
2018-10-21T11:14:02.070Z,31.87
2018-10-21T11:16:31.153Z,29.73
2018-10-21T11:18:59.948Z,34.50
2018-10-21T11:21:28.806Z,32.13
2018-10-21T11:23:57.693Z,28.73
2018-10-21T11:26:26.493Z,31.33
2018-10-21T11:28:55.338Z,35.47
2018-10-21T11:31:24.585Z,28.80
2018-10-21T11:33:53.969Z,31.67
2018-10-21T11:36:22.662Z,37.43
2018-10-21T11:38:51.816Z,29.80
2018-10-21T11:41:20.478Z,30.47
2018-10-21T11:43:49.027Z,32.43
2018-10-21T11:46:19.911Z,33.53
2018-10-21T11:49:17.177Z,34.50
2018-10-21T11:51:53.197Z,32.23
2018-10-21T11:54:21.926Z,35.67
2018-10-21T11:57:00.339Z,30.43
2018-10-21T11:59:41.794Z,31.23
2018-10-21T12:05:03.152Z,35.50
2018-10-21T12:07:32.336Z,37.83
2018-10-21T12:10:01.465Z,40.67
2018-10-21T12:12:30.711Z,36.07
2018-10-21T12:14:59.579Z,35.70
2018-10-21T12:17:28.712Z,36.27
2018-10-21T12:19:57.883Z,33.83
2018-10-21T12:22:26.756Z,35.37
2018-10-21T12:24:55.983Z,35.97
2018-10-21T12:27:25.009Z,34.03
2018-10-21T12:29:54.214Z,37.90
2018-10-21T12:32:24.024Z,33.93
2018-10-21T12:34:53.704Z,33.97
2018-10-21T12:37:22.676Z,31.23
2018-10-21T12:39:52.920Z,32.87
2018-10-21T12:42:21.963Z,34.13
2018-10-21T12:44:51.094Z,32.97
2018-10-21T12:47:20.547Z,35.37
2018-10-21T12:49:49.489Z,30.80
2018-10-21T12:52:27.561Z,32.17
2018-10-21T12:57:49.322Z,29.60
2018-10-21T13:00:18.196Z,30.70
2018-10-21T13:02:46.897Z,34.23
2018-10-21T13:05:15.666Z,32.20
2018-10-21T13:07:44.505Z,30.50
2018-10-21T13:10:14.957Z,30.23
2018-10-21T13:12:43.909Z,29.23
2018-10-21T13:15:12.608Z,30.40
2018-10-21T13:17:41.596Z,27.10
2018-10-21T13:20:10.216Z,28.60
2018-10-21T13:22:39.310Z,29.90
2018-10-21T13:25:08.204Z,30.63
2018-10-21T13:27:37.559Z,29.50
2018-10-21T13:30:10.545Z,29.67
2018-10-21T13:32:40.005Z,29.47
2018-10-21T13:35:08.753Z,27.03
2018-10-21T13:37:37.268Z,29.00
2018-10-21T13:40:06.675Z,32.57
2018-10-21T13:42:35.339Z,34.27
2018-10-21T13:45:05.068Z,26.40
2018-10-21T13:47:34.006Z,31.50
2018-10-21T13:50:02.689Z,29.67
2018-10-21T13:52:31.472Z,33.30
2018-10-21T13:55:00.147Z,31.73
2018-10-21T13:57:29.397Z,34.40
2018-10-21T13:59:58.055Z,40.67
2018-10-21T14:02:27.516Z,30.93
2018-10-21T14:04:56.308Z,32.90
2018-10-21T14:07:25.831Z,31.70
2018-10-21T14:09:54.733Z,29.57
2018-10-21T14:12:23.433Z,27.90
2018-10-21T14:14:52.754Z,28.13
2018-10-21T14:17:21.415Z,31.87
2018-10-21T14:19:50.288Z,30.57
2018-10-21T14:22:19.209Z,36.27
2018-10-21T14:24:48.038Z,30.27
2018-10-21T14:27:17.051Z,32.63
2018-10-21T14:29:46.566Z,29.13
2018-10-21T14:32:15.538Z,34.03
2018-10-21T14:34:44.954Z,33.90
2018-10-21T14:37:14.631Z,32.63
2018-10-21T14:39:43.287Z,30.10
2018-10-21T14:42:12.695Z,29.23
2018-10-21T14:44:41.812Z,31.10
2018-10-21T14:47:10.786Z,31.10
2018-10-21T14:49:40.348Z,32.67
2018-10-21T14:52:09.202Z,32.87
2018-10-21T14:54:38.602Z,29.87
2018-10-21T14:57:08.255Z,30.27
2018-10-21T14:59:37.470Z,27.27
2018-10-21T15:02:06.604Z,27.50
2018-10-21T15:04:35.775Z,23.27
2018-10-21T15:07:04.518Z,23.03
2018-10-21T15:09:34.964Z,21.77
2018-10-21T15:12:04.313Z,26.20
2018-10-21T15:14:33.487Z,20.03
2018-10-21T15:17:04.937Z,23.73
2018-10-21T15:19:33.758Z,23.67
2018-10-21T15:22:02.696Z,27.17
2018-10-21T15:24:31.481Z,20.03
2018-10-21T15:27:00.822Z,20.83
2018-10-21T15:29:29.792Z,25.10
2018-10-21T15:31:59.108Z,24.40
2018-10-21T15:34:28.148Z,20.07
2018-10-21T15:36:58.541Z,21.27
2018-10-21T15:39:27.282Z,22.33
2018-10-21T15:41:56.529Z,20.27
2018-10-21T15:44:25.182Z,21.73
2018-10-21T15:46:53.945Z,23.00
2018-10-21T15:49:22.783Z,23.77
2018-10-21T15:51:51.330Z,25.70
2018-10-21T15:54:20.400Z,21.10
2018-10-21T15:56:49.652Z,24.80
2018-10-21T15:59:18.377Z,21.57
2018-10-21T16:01:47.465Z,22.13
2018-10-21T16:04:17.368Z,21.07
2018-10-21T16:06:46.656Z,23.30
2018-10-21T16:09:15.557Z,19.07
2018-10-21T16:11:44.163Z,22.90
2018-10-21T16:14:13.180Z,24.87
2018-10-21T16:16:41.817Z,23.03
2018-10-21T16:19:10.517Z,17.63
2018-10-21T16:21:39.367Z,25.27
2018-10-21T16:24:07.989Z,20.43
2018-10-21T16:26:36.808Z,29.37
2018-10-21T16:29:05.937Z,21.43
2018-10-21T16:31:34.788Z,17.50
2018-10-21T16:34:03.619Z,21.17
2018-10-21T16:36:32.859Z,19.80
2018-10-21T16:39:02.487Z,18.67
2018-10-21T16:41:33.592Z,19.10
2018-10-21T16:44:02.050Z,22.23
2018-10-21T16:46:30.843Z,26.97
2018-10-21T16:48:59.819Z,20.07
2018-10-21T16:51:28.582Z,31.43
2018-10-21T16:53:57.585Z,26.87
2018-10-21T16:56:26.326Z,22.00
2018-10-21T16:58:55.117Z,23.57
2018-10-21T17:01:24.146Z,26.03
2018-10-21T17:03:53.451Z,22.33
2018-10-21T17:06:22.396Z,25.87
2018-10-21T17:08:51.506Z,21.07
2018-10-21T17:11:20.678Z,26.00
2018-10-21T17:13:49.738Z,26.00
2018-10-21T17:16:19.314Z,22.57
2018-10-21T17:18:48.304Z,21.80
2018-10-21T17:21:17.308Z,24.60
2018-10-21T17:23:46.973Z,24.50
2018-10-21T17:26:16.432Z,23.77
2018-10-21T17:28:45.607Z,24.67
2018-10-21T17:31:15.000Z,26.30
2018-10-21T17:33:43.598Z,22.17
2018-10-21T17:36:13.012Z,25.10
2018-10-21T17:38:42.259Z,28.23
2018-10-21T17:41:11.854Z,23.70
2018-10-21T17:43:40.473Z,27.40
2018-10-21T17:46:09.733Z,26.57
2018-10-21T17:48:38.413Z,24.50
2018-10-21T17:51:07.514Z,22.80
2018-10-21T17:53:36.611Z,24.07
2018-10-21T17:56:06.876Z,21.53
2018-10-21T17:58:35.835Z,26.13
2018-10-21T18:01:05.223Z,26.90
2018-10-21T18:03:35.947Z,24.40
2018-10-21T18:06:05.437Z,24.57
2018-10-21T18:08:35.389Z,25.47
2018-10-21T18:11:04.529Z,25.73
2018-10-21T18:13:34.887Z,25.07
2018-10-21T18:16:06.168Z,23.63
2018-10-21T18:18:35.515Z,26.70
2018-10-21T18:21:05.492Z,27.73
2018-10-21T18:23:34.815Z,27.07
2018-10-21T18:26:04.120Z,30.43
2018-10-21T18:28:34.063Z,26.77
2018-10-21T18:31:03.400Z,27.00
2018-10-21T18:33:33.021Z,29.20
2018-10-21T18:36:03.365Z,28.37
2018-10-21T18:38:33.488Z,33.40
2018-10-21T18:41:02.721Z,28.13
2018-10-21T18:43:32.613Z,30.13
2018-10-21T18:46:01.613Z,26.97
2018-10-21T18:48:31.533Z,27.73
2018-10-21T18:51:00.346Z,28.60
2018-10-21T18:53:30.036Z,28.50
2018-10-21T18:55:59.054Z,28.17
2018-10-21T18:58:29.193Z,28.10
2018-10-21T19:00:59.432Z,24.73
2018-10-21T19:03:31.417Z,28.07
2018-10-21T19:06:06.968Z,27.30
2018-10-21T19:08:35.778Z,30.13
2018-10-21T19:11:06.127Z,26.67
2018-10-21T19:13:35.880Z,30.23
2018-10-21T19:16:05.448Z,24.43
2018-10-21T19:18:35.896Z,27.77
2018-10-21T19:21:05.826Z,28.40
2018-10-21T19:23:35.505Z,28.93
2018-10-21T19:26:04.470Z,28.20
2018-10-21T19:28:35.205Z,29.10
2018-10-21T19:31:05.074Z,31.80
2018-10-21T19:33:34.418Z,32.47
2018-10-21T19:36:03.905Z,27.73
2018-10-21T19:38:32.730Z,36.00
2018-10-21T19:41:02.532Z,31.93
2018-10-21T19:43:32.468Z,33.23
2018-10-21T19:46:03.848Z,31.20
2018-10-21T19:48:33.317Z,32.10
2018-10-21T19:51:02.710Z,32.50
2018-10-21T19:53:31.461Z,31.70
2018-10-21T19:56:02.376Z,32.87
2018-10-21T19:58:32.995Z,29.67
2018-10-21T20:01:02.205Z,33.90
2018-10-21T20:03:31.179Z,30.47
2018-10-21T20:06:00.543Z,30.73
2018-10-21T20:08:29.849Z,35.90
2018-10-21T20:10:58.731Z,32.27
2018-10-21T20:13:28.229Z,32.97
2018-10-21T20:15:57.103Z,39.10
2018-10-21T20:18:26.151Z,32.93
2018-10-21T20:20:56.557Z,35.00
2018-10-21T20:23:25.626Z,34.17
2018-10-21T20:26:23.018Z,33.63
2018-10-21T20:28:53.533Z,38.63
2018-10-21T20:31:22.233Z,37.90
2018-10-21T20:33:51.276Z,37.47
2018-10-21T20:36:20.224Z,37.13
2018-10-21T20:38:49.069Z,35.17
2018-10-21T20:41:17.786Z,37.30
2018-10-21T20:43:46.715Z,36.03
2018-10-21T20:46:16.079Z,34.53
2018-10-21T20:48:44.715Z,40.13
2018-10-21T20:51:13.931Z,36.93
2018-10-21T20:53:42.605Z,37.70
2018-10-21T20:56:11.253Z,37.33
2018-10-21T20:58:41.279Z,32.80
2018-10-21T21:01:10.279Z,38.20
2018-10-21T21:03:38.674Z,38.83
2018-10-21T21:06:07.204Z,44.23
2018-10-21T21:08:35.896Z,35.80
2018-10-21T21:11:04.633Z,41.03
2018-10-21T21:13:55.906Z,41.60
2018-10-21T21:16:25.224Z,41.57
2018-10-21T21:18:55.168Z,42.57
2018-10-21T21:21:23.988Z,40.13
2018-10-21T21:23:52.855Z,40.90
2018-10-21T21:26:21.836Z,42.67
2018-10-21T21:28:50.412Z,43.20
2018-10-21T21:31:19.042Z,46.67
2018-10-21T21:33:48.252Z,42.90
2018-10-21T21:36:17.229Z,38.53
2018-10-21T21:38:46.154Z,40.57
2018-10-21T21:41:14.877Z,40.73
2018-10-21T21:43:43.843Z,38.60
2018-10-21T21:46:13.009Z,44.60
2018-10-21T21:48:41.789Z,42.10
2018-10-21T21:51:10.625Z,39.83
2018-10-21T21:53:39.389Z,44.20
2018-10-21T21:56:08.376Z,40.20
2018-10-21T21:58:37.879Z,49.37
2018-10-21T22:01:07.651Z,46.33
2018-10-21T22:03:43.576Z,44.70
2018-10-21T22:06:12.210Z,43.97
2018-10-21T22:08:41.131Z,43.70
2018-10-21T22:11:10.124Z,48.43
2018-10-21T22:13:39.000Z,45.10
2018-10-21T22:16:07.948Z,50.03
2018-10-21T22:18:40.493Z,46.83
2018-10-21T22:21:10.306Z,43.43
2018-10-21T22:23:39.566Z,40.77
2018-10-21T22:26:09.090Z,46.60
2018-10-21T22:28:38.700Z,42.53
2018-10-21T22:31:07.762Z,42.83
2018-10-21T22:33:37.225Z,47.20
2018-10-21T22:36:06.062Z,46.20
2018-10-21T22:38:35.006Z,42.10
2018-10-21T22:41:03.824Z,44.43
2018-10-21T22:43:32.565Z,42.90
2018-10-21T22:46:01.498Z,42.43
2018-10-21T22:48:30.219Z,42.17
2018-10-21T22:50:58.804Z,42.60
2018-10-21T22:53:27.546Z,43.87
2018-10-21T22:55:56.207Z,41.17
2018-10-21T22:58:24.907Z,43.63
2018-10-21T23:00:53.610Z,42.17
2018-10-21T23:03:40.794Z,41.57
2018-10-21T23:06:09.588Z,40.83
2018-10-21T23:08:38.391Z,38.77
2018-10-21T23:11:07.064Z,38.20
2018-10-21T23:13:35.962Z,40.30
2018-10-21T23:16:05.033Z,38.57
2018-10-21T23:18:33.861Z,36.53
2018-10-21T23:21:02.677Z,42.63
2018-10-21T23:23:31.310Z,40.73
2018-10-21T23:26:00.011Z,41.47
2018-10-21T23:28:29.545Z,38.53
2018-10-21T23:30:58.163Z,37.10
2018-10-21T23:33:28.749Z,36.37
2018-10-21T23:35:57.340Z,38.40
2018-10-21T23:38:26.267Z,30.67
2018-10-21T23:40:54.778Z,31.13
2018-10-21T23:43:23.331Z,22.87
2018-10-21T23:45:51.941Z,21.57
2018-10-21T23:48:20.579Z,20.67
2018-10-21T23:50:49.916Z,18.57
2018-10-21T23:53:19.504Z,19.40
2018-10-21T23:55:48.349Z,25.93
2018-10-21T23:58:22.172Z,22.53
